sensor_id;sensor_type;location;lat;lon;timestamp;temperature;humidity
28247;DHT22;66191;53.178;22.058;2023-06-22T00:01:49;23.10;93.60
28247;DHT22;66191;53.178;22.058;2023-06-22T00:04:20;23.10;93.60
28247;DHT22;66191;53.178;22.058;2023-06-22T00:06:52;23.10;93.60
28247;DHT22;66191;53.178;22.058;2023-06-22T00:09:24;23.10;93.60
28247;DHT22;66191;53.178;22.058;2023-06-22T00:11:58;23.10;93.50
28247;DHT22;66191;53.178;22.058;2023-06-22T00:14:30;23.00;93.40
28247;DHT22;66191;53.178;22.058;2023-06-22T00:17:01;23.00;93.50
28247;DHT22;66191;53.178;22.058;2023-06-22T00:19:32;23.00;93.50
28247;DHT22;66191;53.178;22.058;2023-06-22T00:22:04;23.00;93.50
28247;DHT22;66191;53.178;22.058;2023-06-22T00:24:35;22.90;93.50
28247;DHT22;66191;53.178;22.058;2023-06-22T00:27:09;22.90;93.50
28247;DHT22;66191;53.178;22.058;2023-06-22T00:29:40;22.90;93.30
28247;DHT22;66191;53.178;22.058;2023-06-22T00:32:14;22.90;93.40
28247;DHT22;66191;53.178;22.058;2023-06-22T00:34:47;22.90;93.40
28247;DHT22;66191;53.178;22.058;2023-06-22T00:37:18;22.90;93.30
28247;DHT22;66191;53.178;22.058;2023-06-22T00:39:50;22.80;93.40
28247;DHT22;66191;53.178;22.058;2023-06-22T00:42:24;22.80;93.40
28247;DHT22;66191;53.178;22.058;2023-06-22T00:44:55;22.80;93.40
28247;DHT22;66191;53.178;22.058;2023-06-22T00:47:27;22.80;93.40
28247;DHT22;66191;53.178;22.058;2023-06-22T00:49:58;22.70;93.40
28247;DHT22;66191;53.178;22.058;2023-06-22T00:52:32;22.70;93.50
28247;DHT22;66191;53.178;22.058;2023-06-22T00:55:05;22.70;93.60
28247;DHT22;66191;53.178;22.058;2023-06-22T00:57:40;22.70;93.70
28247;DHT22;66191;53.178;22.058;2023-06-22T01:00:13;22.60;93.80
28247;DHT22;66191;53.178;22.058;2023-06-22T01:02:46;22.70;93.90
28247;DHT22;66191;53.178;22.058;2023-06-22T01:05:22;22.60;94.00
28247;DHT22;66191;53.178;22.058;2023-06-22T01:08:11;22.70;94.10
28247;DHT22;66191;53.178;22.058;2023-06-22T01:10:49;22.60;94.50
28247;DHT22;66191;53.178;22.058;2023-06-22T01:13:31;22.60;94.10
28247;DHT22;66191;53.178;22.058;2023-06-22T01:16:06;22.50;94.10
28247;DHT22;66191;53.178;22.058;2023-06-22T01:18:42;22.60;94.20
28247;DHT22;66191;53.178;22.058;2023-06-22T01:21:17;22.50;94.20
28247;DHT22;66191;53.178;22.058;2023-06-22T01:23:56;22.50;94.30
28247;DHT22;66191;53.178;22.058;2023-06-22T01:26:39;22.50;94.20
28247;DHT22;66191;53.178;22.058;2023-06-22T01:29:15;22.50;94.30
28247;DHT22;66191;53.178;22.058;2023-06-22T01:31:49;22.50;94.20
28247;DHT22;66191;53.178;22.058;2023-06-22T01:34:23;22.50;94.20
28247;DHT22;66191;53.178;22.058;2023-06-22T01:36:56;22.50;94.20
28247;DHT22;66191;53.178;22.058;2023-06-22T01:39:30;22.40;94.20
28247;DHT22;66191;53.178;22.058;2023-06-22T01:42:03;22.40;94.40
28247;DHT22;66191;53.178;22.058;2023-06-22T01:44:38;22.30;94.50
28247;DHT22;66191;53.178;22.058;2023-06-22T01:47:11;22.30;94.50
28247;DHT22;66191;53.178;22.058;2023-06-22T01:49:45;22.30;94.60
28247;DHT22;66191;53.178;22.058;2023-06-22T01:52:16;22.30;94.60
28247;DHT22;66191;53.178;22.058;2023-06-22T01:54:50;22.20;94.60
28247;DHT22;66191;53.178;22.058;2023-06-22T01:57:21;22.20;94.70
28247;DHT22;66191;53.178;22.058;2023-06-22T02:00:00;22.20;94.80
28247;DHT22;66191;53.178;22.058;2023-06-22T02:02:53;22.10;95.00
28247;DHT22;66191;53.178;22.058;2023-06-22T02:05:33;22.10;95.10
28247;DHT22;66191;53.178;22.058;2023-06-22T02:08:08;22.10;95.20
28247;DHT22;66191;53.178;22.058;2023-06-22T02:10:40;22.10;95.30
28247;DHT22;66191;53.178;22.058;2023-06-22T02:13:13;22.10;95.30
28247;DHT22;66191;53.178;22.058;2023-06-22T02:15:48;22.10;95.40
28247;DHT22;66191;53.178;22.058;2023-06-22T02:18:19;22.00;95.40
28247;DHT22;66191;53.178;22.058;2023-06-22T02:20:51;22.00;95.50
28247;DHT22;66191;53.178;22.058;2023-06-22T02:23:22;22.00;95.60
28247;DHT22;66191;53.178;22.058;2023-06-22T02:25:54;21.90;95.70
28247;DHT22;66191;53.178;22.058;2023-06-22T02:28:25;21.90;95.70
28247;DHT22;66191;53.178;22.058;2023-06-22T02:30:59;21.90;95.80
28247;DHT22;66191;53.178;22.058;2023-06-22T02:33:30;21.90;96.00
28247;DHT22;66191;53.178;22.058;2023-06-22T02:36:02;21.90;96.00
28247;DHT22;66191;53.178;22.058;2023-06-22T02:38:37;21.90;96.10
28247;DHT22;66191;53.178;22.058;2023-06-22T02:41:09;21.80;96.20
28247;DHT22;66191;53.178;22.058;2023-06-22T02:43:42;21.80;96.40
28247;DHT22;66191;53.178;22.058;2023-06-22T02:46:16;21.80;96.50
28247;DHT22;66191;53.178;22.058;2023-06-22T02:48:48;21.80;96.60
28247;DHT22;66191;53.178;22.058;2023-06-22T02:51:20;21.70;96.70
28247;DHT22;66191;53.178;22.058;2023-06-22T02:53:51;21.70;96.80
28247;DHT22;66191;53.178;22.058;2023-06-22T02:56:28;21.70;96.80
28247;DHT22;66191;53.178;22.058;2023-06-22T02:59:01;21.70;96.80
28247;DHT22;66191;53.178;22.058;2023-06-22T03:01:40;21.80;96.90
28247;DHT22;66191;53.178;22.058;2023-06-22T03:04:19;21.80;97.00
28247;DHT22;66191;53.178;22.058;2023-06-22T03:06:51;21.80;97.00
28247;DHT22;66191;53.178;22.058;2023-06-22T03:09:22;21.90;96.90
28247;DHT22;66191;53.178;22.058;2023-06-22T03:11:53;21.90;96.90
28247;DHT22;66191;53.178;22.058;2023-06-22T03:14:29;21.90;96.90
28247;DHT22;66191;53.178;22.058;2023-06-22T03:17:05;22.00;96.80
28247;DHT22;66191;53.178;22.058;2023-06-22T03:19:37;22.00;96.90
28247;DHT22;66191;53.178;22.058;2023-06-22T03:22:08;21.90;96.90
28247;DHT22;66191;53.178;22.058;2023-06-22T03:24:41;22.00;97.10
28247;DHT22;66191;53.178;22.058;2023-06-22T03:27:12;22.00;97.10
28247;DHT22;66191;53.178;22.058;2023-06-22T03:29:44;22.00;97.10
28247;DHT22;66191;53.178;22.058;2023-06-22T03:32:18;22.10;97.20
28247;DHT22;66191;53.178;22.058;2023-06-22T03:34:49;22.00;97.20
28247;DHT22;66191;53.178;22.058;2023-06-22T03:37:21;22.10;97.10
28247;DHT22;66191;53.178;22.058;2023-06-22T03:39:52;22.10;96.90
28247;DHT22;66191;53.178;22.058;2023-06-22T03:42:23;22.10;97.10
28247;DHT22;66191;53.178;22.058;2023-06-22T03:44:54;22.10;97.00
28247;DHT22;66191;53.178;22.058;2023-06-22T03:47:29;22.20;97.00
28247;DHT22;66191;53.178;22.058;2023-06-22T03:50:00;22.20;97.00
28247;DHT22;66191;53.178;22.058;2023-06-22T03:52:32;22.30;96.90
28247;DHT22;66191;53.178;22.058;2023-06-22T03:55:03;22.40;96.70
28247;DHT22;66191;53.178;22.058;2023-06-22T03:57:35;22.50;96.60
28247;DHT22;66191;53.178;22.058;2023-06-22T04:00:08;22.60;96.40
28247;DHT22;66191;53.178;22.058;2023-06-22T04:02:44;22.70;96.30
28247;DHT22;66191;53.178;22.058;2023-06-22T04:05:15;22.80;96.10
28247;DHT22;66191;53.178;22.058;2023-06-22T04:07:47;22.90;95.90
28247;DHT22;66191;53.178;22.058;2023-06-22T04:10:18;23.00;95.70
28247;DHT22;66191;53.178;22.058;2023-06-22T04:12:50;23.10;95.60
28247;DHT22;66191;53.178;22.058;2023-06-22T04:15:21;23.20;95.40
28247;DHT22;66191;53.178;22.058;2023-06-22T04:17:56;23.20;95.30
28247;DHT22;66191;53.178;22.058;2023-06-22T04:20:27;23.20;95.20
28247;DHT22;66191;53.178;22.058;2023-06-22T04:23:00;23.20;95.20
28247;DHT22;66191;53.178;22.058;2023-06-22T04:25:31;23.30;95.20
28247;DHT22;66191;53.178;22.058;2023-06-22T04:28:03;23.40;95.20
28247;DHT22;66191;53.178;22.058;2023-06-22T04:30:40;23.40;95.10
28247;DHT22;66191;53.178;22.058;2023-06-22T04:33:17;23.40;95.10
28247;DHT22;66191;53.178;22.058;2023-06-22T04:35:51;23.50;95.10
28247;DHT22;66191;53.178;22.058;2023-06-22T04:38:23;23.50;95.10
28247;DHT22;66191;53.178;22.058;2023-06-22T04:40:54;23.60;95.00
28247;DHT22;66191;53.178;22.058;2023-06-22T04:43:26;23.60;95.00
28247;DHT22;66191;53.178;22.058;2023-06-22T04:45:58;23.70;95.10
28247;DHT22;66191;53.178;22.058;2023-06-22T04:48:34;23.80;95.10
28247;DHT22;66191;53.178;22.058;2023-06-22T04:51:05;23.90;95.00
28247;DHT22;66191;53.178;22.058;2023-06-22T04:53:37;24.00;94.80
28247;DHT22;66191;53.178;22.058;2023-06-22T04:56:09;24.10;94.70
28247;DHT22;66191;53.178;22.058;2023-06-22T04:58:40;24.20;94.40
28247;DHT22;66191;53.178;22.058;2023-06-22T05:01:11;24.30;94.40
28247;DHT22;66191;53.178;22.058;2023-06-22T05:03:45;24.40;94.20
28247;DHT22;66191;53.178;22.058;2023-06-22T05:06:17;24.60;94.10
28247;DHT22;66191;53.178;22.058;2023-06-22T05:08:49;24.70;94.00
28247;DHT22;66191;53.178;22.058;2023-06-22T05:11:20;24.80;93.80
28247;DHT22;66191;53.178;22.058;2023-06-22T05:13:52;24.90;93.70
28247;DHT22;66191;53.178;22.058;2023-06-22T05:16:23;25.10;93.60
28247;DHT22;66191;53.178;22.058;2023-06-22T05:18:58;25.10;93.50
28247;DHT22;66191;53.178;22.058;2023-06-22T05:21:31;25.20;93.30
28247;DHT22;66191;53.178;22.058;2023-06-22T05:24:04;25.30;93.30
28247;DHT22;66191;53.178;22.058;2023-06-22T05:26:35;25.30;93.10
28247;DHT22;66191;53.178;22.058;2023-06-22T05:29:07;25.40;93.20
28247;DHT22;66191;53.178;22.058;2023-06-22T05:31:39;25.50;93.00
28247;DHT22;66191;53.178;22.058;2023-06-22T05:34:15;25.60;92.90
28247;DHT22;66191;53.178;22.058;2023-06-22T05:36:51;25.60;92.70
28247;DHT22;66191;53.178;22.058;2023-06-22T05:39:22;25.70;92.70
28247;DHT22;66191;53.178;22.058;2023-06-22T05:41:53;25.80;92.40
28247;DHT22;66191;53.178;22.058;2023-06-22T05:44:25;25.80;92.30
28247;DHT22;66191;53.178;22.058;2023-06-22T05:46:56;25.90;92.30
28247;DHT22;66191;53.178;22.058;2023-06-22T05:49:31;25.90;92.30
28247;DHT22;66191;53.178;22.058;2023-06-22T05:52:03;25.90;92.20
28247;DHT22;66191;53.178;22.058;2023-06-22T05:54:35;25.90;92.30
28247;DHT22;66191;53.178;22.058;2023-06-22T05:57:06;26.00;92.30
28247;DHT22;66191;53.178;22.058;2023-06-22T05:59:38;26.00;92.00
28247;DHT22;66191;53.178;22.058;2023-06-22T06:02:10;26.00;92.00
28247;DHT22;66191;53.178;22.058;2023-06-22T06:04:44;25.90;92.00
28247;DHT22;66191;53.178;22.058;2023-06-22T06:07:14;25.90;92.10
28247;DHT22;66191;53.178;22.058;2023-06-22T06:09:46;25.90;91.90
28247;DHT22;66191;53.178;22.058;2023-06-22T06:12:17;25.70;92.00
28247;DHT22;66191;53.178;22.058;2023-06-22T06:14:49;25.50;92.10
28247;DHT22;66191;53.178;22.058;2023-06-22T06:17:21;25.50;92.30
28247;DHT22;66191;53.178;22.058;2023-06-22T06:19:55;25.50;92.40
28247;DHT22;66191;53.178;22.058;2023-06-22T06:22:26;25.30;92.40
28247;DHT22;66191;53.178;22.058;2023-06-22T06:24:58;25.30;92.60
28247;DHT22;66191;53.178;22.058;2023-06-22T06:27:29;25.30;92.70
28247;DHT22;66191;53.178;22.058;2023-06-22T06:30:04;25.40;92.80
28247;DHT22;66191;53.178;22.058;2023-06-22T06:32:36;25.50;92.80
28247;DHT22;66191;53.178;22.058;2023-06-22T06:35:11;25.60;92.80
28247;DHT22;66191;53.178;22.058;2023-06-22T06:37:44;25.70;92.70
28247;DHT22;66191;53.178;22.058;2023-06-22T06:40:17;25.70;92.50
28247;DHT22;66191;53.178;22.058;2023-06-22T06:42:49;25.70;92.60
28247;DHT22;66191;53.178;22.058;2023-06-22T06:45:22;25.70;92.60
28247;DHT22;66191;53.178;22.058;2023-06-22T06:47:53;25.70;92.70
28247;DHT22;66191;53.178;22.058;2023-06-22T06:50:28;25.70;92.60
28247;DHT22;66191;53.178;22.058;2023-06-22T06:52:59;25.70;92.70
28247;DHT22;66191;53.178;22.058;2023-06-22T06:55:31;25.70;92.50
28247;DHT22;66191;53.178;22.058;2023-06-22T06:58:02;25.70;92.80
28247;DHT22;66191;53.178;22.058;2023-06-22T07:00:35;25.70;92.90
28247;DHT22;66191;53.178;22.058;2023-06-22T07:03:06;25.70;92.80
28247;DHT22;66191;53.178;22.058;2023-06-22T07:05:41;25.60;92.90
28247;DHT22;66191;53.178;22.058;2023-06-22T07:08:12;25.60;93.00
28247;DHT22;66191;53.178;22.058;2023-06-22T07:10:43;25.50;92.90
28247;DHT22;66191;53.178;22.058;2023-06-22T07:13:14;25.40;93.10
28247;DHT22;66191;53.178;22.058;2023-06-22T07:15:46;25.30;93.30
28247;DHT22;66191;53.178;22.058;2023-06-22T07:18:17;25.20;93.50
28247;DHT22;66191;53.178;22.058;2023-06-22T07:20:51;25.20;93.60
28247;DHT22;66191;53.178;22.058;2023-06-22T07:23:22;25.20;93.90
28247;DHT22;66191;53.178;22.058;2023-06-22T07:25:53;25.20;93.90
28247;DHT22;66191;53.178;22.058;2023-06-22T07:28:25;25.10;93.90
28247;DHT22;66191;53.178;22.058;2023-06-22T07:30:56;25.10;93.90
28247;DHT22;66191;53.178;22.058;2023-06-22T07:33:28;25.00;94.10
28247;DHT22;66191;53.178;22.058;2023-06-22T07:36:02;24.90;94.30
28247;DHT22;66191;53.178;22.058;2023-06-22T07:38:35;24.90;94.40
28247;DHT22;66191;53.178;22.058;2023-06-22T07:41:07;24.80;94.50
28247;DHT22;66191;53.178;22.058;2023-06-22T07:43:38;24.70;94.70
28247;DHT22;66191;53.178;22.058;2023-06-22T07:46:10;24.60;94.90
28247;DHT22;66191;53.178;22.058;2023-06-22T07:48:41;24.50;95.10
28247;DHT22;66191;53.178;22.058;2023-06-22T07:51:15;24.40;95.30
28247;DHT22;66191;53.178;22.058;2023-06-22T07:53:46;24.40;95.40
28247;DHT22;66191;53.178;22.058;2023-06-22T07:56:17;24.20;95.50
28247;DHT22;66191;53.178;22.058;2023-06-22T07:58:49;24.10;95.70
28247;DHT22;66191;53.178;22.058;2023-06-22T08:01:22;24.00;95.90
28247;DHT22;66191;53.178;22.058;2023-06-22T08:03:53;23.90;96.20
28247;DHT22;66191;53.178;22.058;2023-06-22T08:06:30;23.90;96.30
28247;DHT22;66191;53.178;22.058;2023-06-22T08:09:04;23.80;96.50
28247;DHT22;66191;53.178;22.058;2023-06-22T08:11:35;23.80;96.40
28247;DHT22;66191;53.178;22.058;2023-06-22T08:14:06;23.80;96.30
28247;DHT22;66191;53.178;22.058;2023-06-22T08:16:38;23.90;96.40
28247;DHT22;66191;53.178;22.058;2023-06-22T08:19:11;23.90;96.30
28247;DHT22;66191;53.178;22.058;2023-06-22T08:21:45;23.90;96.30
28247;DHT22;66191;53.178;22.058;2023-06-22T08:24:16;23.90;96.30
28247;DHT22;66191;53.178;22.058;2023-06-22T08:26:49;23.90;96.10
28247;DHT22;66191;53.178;22.058;2023-06-22T08:29:20;24.00;96.10
28247;DHT22;66191;53.178;22.058;2023-06-22T08:31:52;24.10;95.90
28247;DHT22;66191;53.178;22.058;2023-06-22T08:34:23;24.10;95.80
28247;DHT22;66191;53.178;22.058;2023-06-22T08:36:58;24.00;95.60
28247;DHT22;66191;53.178;22.058;2023-06-22T08:39:34;24.00;95.70
28247;DHT22;66191;53.178;22.058;2023-06-22T08:42:06;24.00;95.80
28247;DHT22;66191;53.178;22.058;2023-06-22T08:44:40;24.00;95.60
28247;DHT22;66191;53.178;22.058;2023-06-22T08:47:11;23.90;95.70
28247;DHT22;66191;53.178;22.058;2023-06-22T08:49:43;23.90;95.80
28247;DHT22;66191;53.178;22.058;2023-06-22T08:52:17;24.00;95.80
28247;DHT22;66191;53.178;22.058;2023-06-22T08:54:51;24.10;95.60
28247;DHT22;66191;53.178;22.058;2023-06-22T08:57:22;24.10;95.70
28247;DHT22;66191;53.178;22.058;2023-06-22T08:59:53;24.10;95.40
28247;DHT22;66191;53.178;22.058;2023-06-22T09:02:29;24.10;95.70
28247;DHT22;66191;53.178;22.058;2023-06-22T09:05:04;24.20;95.40
28247;DHT22;66191;53.178;22.058;2023-06-22T09:07:39;24.10;95.20
28247;DHT22;66191;53.178;22.058;2023-06-22T09:10:10;24.20;95.10
28247;DHT22;66191;53.178;22.058;2023-06-22T09:12:41;24.30;94.90
28247;DHT22;66191;53.178;22.058;2023-06-22T09:15:12;24.40;94.70
28247;DHT22;66191;53.178;22.058;2023-06-22T09:17:45;24.50;94.30
28247;DHT22;66191;53.178;22.058;2023-06-22T09:20:17;24.70;93.70
28247;DHT22;66191;53.178;22.058;2023-06-22T09:22:51;24.80;93.50
28247;DHT22;66191;53.178;22.058;2023-06-22T09:25:21;25.00;93.00
28247;DHT22;66191;53.178;22.058;2023-06-22T09:27:53;25.20;92.70
28247;DHT22;66191;53.178;22.058;2023-06-22T09:30:24;25.40;92.80
28247;DHT22;66191;53.178;22.058;2023-06-22T09:32:56;25.50;92.30
28247;DHT22;66191;53.178;22.058;2023-06-22T09:35:29;25.50;92.10
28247;DHT22;66191;53.178;22.058;2023-06-22T09:38:03;25.70;92.00
28247;DHT22;66191;53.178;22.058;2023-06-22T09:40:34;25.70;91.00
28247;DHT22;66191;53.178;22.058;2023-06-22T09:43:08;25.70;90.90
28247;DHT22;66191;53.178;22.058;2023-06-22T09:45:39;25.70;90.70
28247;DHT22;66191;53.178;22.058;2023-06-22T09:48:11;25.70;90.20
28247;DHT22;66191;53.178;22.058;2023-06-22T09:50:42;25.70;90.30
28247;DHT22;66191;53.178;22.058;2023-06-22T09:53:16;25.80;90.40
28247;DHT22;66191;53.178;22.058;2023-06-22T09:55:47;25.90;89.00
28247;DHT22;66191;53.178;22.058;2023-06-22T09:58:18;26.00;88.30
28247;DHT22;66191;53.178;22.058;2023-06-22T10:00:49;26.00;88.80
28247;DHT22;66191;53.178;22.058;2023-06-22T10:03:21;26.00;88.90
28247;DHT22;66191;53.178;22.058;2023-06-22T10:05:52;25.90;88.00
28247;DHT22;66191;53.178;22.058;2023-06-22T10:08:26;25.80;88.20
28247;DHT22;66191;53.178;22.058;2023-06-22T10:10:57;25.80;89.20
28247;DHT22;66191;53.178;22.058;2023-06-22T10:13:29;25.90;89.40
28247;DHT22;66191;53.178;22.058;2023-06-22T10:16:03;26.00;87.50
28247;DHT22;66191;53.178;22.058;2023-06-22T10:18:35;26.00;87.40
28247;DHT22;66191;53.178;22.058;2023-06-22T10:21:06;26.00;87.40
28247;DHT22;66191;53.178;22.058;2023-06-22T10:23:40;26.00;87.10
28247;DHT22;66191;53.178;22.058;2023-06-22T10:26:11;25.90;87.20
28247;DHT22;66191;53.178;22.058;2023-06-22T10:28:42;25.90;87.70
28247;DHT22;66191;53.178;22.058;2023-06-22T10:31:14;26.00;87.40
28247;DHT22;66191;53.178;22.058;2023-06-22T10:33:45;26.00;86.10
28247;DHT22;66191;53.178;22.058;2023-06-22T10:36:17;26.10;87.30
28247;DHT22;66191;53.178;22.058;2023-06-22T10:38:51;26.30;86.80
28247;DHT22;66191;53.178;22.058;2023-06-22T10:41:23;26.20;87.30
28247;DHT22;66191;53.178;22.058;2023-06-22T10:43:57;26.20;86.40
28247;DHT22;66191;53.178;22.058;2023-06-22T10:46:28;26.10;86.90
28247;DHT22;66191;53.178;22.058;2023-06-22T10:48:59;26.00;87.20
28247;DHT22;66191;53.178;22.058;2023-06-22T10:51:30;26.00;87.10
28247;DHT22;66191;53.178;22.058;2023-06-22T10:54:05;26.00;86.90
28247;DHT22;66191;53.178;22.058;2023-06-22T10:56:36;25.90;87.00
28247;DHT22;66191;53.178;22.058;2023-06-22T10:59:08;26.00;86.70
28247;DHT22;66191;53.178;22.058;2023-06-22T11:01:39;26.00;86.80
28247;DHT22;66191;53.178;22.058;2023-06-22T11:04:10;26.10;86.60
28247;DHT22;66191;53.178;22.058;2023-06-22T11:06:41;26.10;85.90
28247;DHT22;66191;53.178;22.058;2023-06-22T11:09:15;26.10;85.90
28247;DHT22;66191;53.178;22.058;2023-06-22T11:11:55;26.10;86.30
28247;DHT22;66191;53.178;22.058;2023-06-22T11:14:28;26.20;85.70
28247;DHT22;66191;53.178;22.058;2023-06-22T11:17:00;26.40;84.20
28247;DHT22;66191;53.178;22.058;2023-06-22T11:19:31;26.50;83.30
28247;DHT22;66191;53.178;22.058;2023-06-22T11:22:02;26.50;83.70
28247;DHT22;66191;53.178;22.058;2023-06-22T11:24:36;26.60;82.80
28247;DHT22;66191;53.178;22.058;2023-06-22T11:27:07;26.80;83.60
28247;DHT22;66191;53.178;22.058;2023-06-22T11:29:39;26.80;80.30
28247;DHT22;66191;53.178;22.058;2023-06-22T11:32:10;26.70;81.00
28247;DHT22;66191;53.178;22.058;2023-06-22T11:34:42;26.70;81.30
28247;DHT22;66191;53.178;22.058;2023-06-22T11:37:14;26.80;82.70
28247;DHT22;66191;53.178;22.058;2023-06-22T11:39:48;26.80;80.90
28247;DHT22;66191;53.178;22.058;2023-06-22T11:42:33;26.70;79.60
28247;DHT22;66191;53.178;22.058;2023-06-22T11:45:06;26.60;81.70
28247;DHT22;66191;53.178;22.058;2023-06-22T11:47:37;26.60;80.80
28247;DHT22;66191;53.178;22.058;2023-06-22T11:50:09;26.50;79.80
28247;DHT22;66191;53.178;22.058;2023-06-22T11:52:40;26.50;79.90
28247;DHT22;66191;53.178;22.058;2023-06-22T11:55:14;26.70;78.70
28247;DHT22;66191;53.178;22.058;2023-06-22T11:57:55;26.80;78.90
28247;DHT22;66191;53.178;22.058;2023-06-22T12:00:28;26.80;78.30
28247;DHT22;66191;53.178;22.058;2023-06-22T12:03:17;26.70;79.20
28247;DHT22;66191;53.178;22.058;2023-06-22T12:05:52;26.70;77.90
28247;DHT22;66191;53.178;22.058;2023-06-22T12:08:24;26.60;78.50
28247;DHT22;66191;53.178;22.058;2023-06-22T12:10:58;26.60;78.40
28247;DHT22;66191;53.178;22.058;2023-06-22T12:13:29;26.70;77.50
28247;DHT22;66191;53.178;22.058;2023-06-22T12:16:01;26.70;77.30
28247;DHT22;66191;53.178;22.058;2023-06-22T12:18:32;26.80;77.00
28247;DHT22;66191;53.178;22.058;2023-06-22T12:21:13;26.90;76.60
28247;DHT22;66191;53.178;22.058;2023-06-22T12:23:47;27.00;75.80
28247;DHT22;66191;53.178;22.058;2023-06-22T12:26:21;27.00;76.40
28247;DHT22;66191;53.178;22.058;2023-06-22T12:28:54;27.00;75.00
28247;DHT22;66191;53.178;22.058;2023-06-22T12:31:26;27.10;74.50
28247;DHT22;66191;53.178;22.058;2023-06-22T12:33:58;27.10;74.80
28247;DHT22;66191;53.178;22.058;2023-06-22T12:36:31;27.10;74.10
28247;DHT22;66191;53.178;22.058;2023-06-22T12:39:04;27.20;74.80
28247;DHT22;66191;53.178;22.058;2023-06-22T12:41:38;27.10;74.00
28247;DHT22;66191;53.178;22.058;2023-06-22T12:44:11;27.10;74.60
28247;DHT22;66191;53.178;22.058;2023-06-22T12:46:43;27.10;75.50
28247;DHT22;66191;53.178;22.058;2023-06-22T12:49:14;27.10;74.10
28247;DHT22;66191;53.178;22.058;2023-06-22T12:51:45;27.00;74.20
28247;DHT22;66191;53.178;22.058;2023-06-22T12:54:17;27.10;74.60
28247;DHT22;66191;53.178;22.058;2023-06-22T12:56:51;27.20;72.00
28247;DHT22;66191;53.178;22.058;2023-06-22T12:59:27;27.20;70.60
28247;DHT22;66191;53.178;22.058;2023-06-22T13:01:59;27.30;69.60
28247;DHT22;66191;53.178;22.058;2023-06-22T13:04:30;27.30;69.50
28247;DHT22;66191;53.178;22.058;2023-06-22T13:07:01;27.30;69.10
28247;DHT22;66191;53.178;22.058;2023-06-22T13:09:47;27.30;69.30
28247;DHT22;66191;53.178;22.058;2023-06-22T13:12:23;27.30;70.30
28247;DHT22;66191;53.178;22.058;2023-06-22T13:14:54;27.50;70.50
28247;DHT22;66191;53.178;22.058;2023-06-22T13:17:25;27.60;71.10
28247;DHT22;66191;53.178;22.058;2023-06-22T13:19:58;27.60;70.80
28247;DHT22;66191;53.178;22.058;2023-06-22T13:22:30;27.50;70.70
28247;DHT22;66191;53.178;22.058;2023-06-22T13:25:09;27.50;71.40
28247;DHT22;66191;53.178;22.058;2023-06-22T13:27:43;27.40;70.00
28247;DHT22;66191;53.178;22.058;2023-06-22T13:30:15;27.40;70.10
28247;DHT22;66191;53.178;22.058;2023-06-22T13:32:46;27.40;70.10
28247;DHT22;66191;53.178;22.058;2023-06-22T13:35:17;27.50;69.50
28247;DHT22;66191;53.178;22.058;2023-06-22T13:37:49;27.50;70.40
28247;DHT22;66191;53.178;22.058;2023-06-22T13:40:22;27.50;69.80
28247;DHT22;66191;53.178;22.058;2023-06-22T13:42:56;27.60;69.80
28247;DHT22;66191;53.178;22.058;2023-06-22T13:45:28;27.70;69.10
28247;DHT22;66191;53.178;22.058;2023-06-22T13:47:59;27.70;68.40
28247;DHT22;66191;53.178;22.058;2023-06-22T13:50:31;27.80;67.70
28247;DHT22;66191;53.178;22.058;2023-06-22T13:53:02;27.80;67.90
28247;DHT22;66191;53.178;22.058;2023-06-22T13:55:33;27.80;67.80
28247;DHT22;66191;53.178;22.058;2023-06-22T13:58:07;27.80;68.00
28247;DHT22;66191;53.178;22.058;2023-06-22T14:00:38;27.90;68.10
28247;DHT22;66191;53.178;22.058;2023-06-22T14:03:12;27.90;67.90
28247;DHT22;66191;53.178;22.058;2023-06-22T14:05:44;28.00;66.70
28247;DHT22;66191;53.178;22.058;2023-06-22T14:08:16;28.00;66.30
28247;DHT22;66191;53.178;22.058;2023-06-22T14:11:07;28.00;66.10
28247;DHT22;66191;53.178;22.058;2023-06-22T14:13:42;28.00;65.20
28247;DHT22;66191;53.178;22.058;2023-06-22T14:16:13;27.90;65.30
28247;DHT22;66191;53.178;22.058;2023-06-22T14:18:45;27.90;64.50
28247;DHT22;66191;53.178;22.058;2023-06-22T14:21:16;27.80;64.30
28247;DHT22;66191;53.178;22.058;2023-06-22T14:23:47;27.70;64.00
28247;DHT22;66191;53.178;22.058;2023-06-22T14:26:18;27.50;63.90
28247;DHT22;66191;53.178;22.058;2023-06-22T14:28:53;27.50;64.10
28247;DHT22;66191;53.178;22.058;2023-06-22T14:31:25;27.40;63.60
28247;DHT22;66191;53.178;22.058;2023-06-22T14:33:57;27.30;63.10
28247;DHT22;66191;53.178;22.058;2023-06-22T14:36:28;27.30;62.60
28247;DHT22;66191;53.178;22.058;2023-06-22T14:38:59;27.30;62.50
28247;DHT22;66191;53.178;22.058;2023-06-22T14:41:31;27.30;62.90
28247;DHT22;66191;53.178;22.058;2023-06-22T14:44:05;27.20;63.20
28247;DHT22;66191;53.178;22.058;2023-06-22T14:46:36;27.20;62.80
28247;DHT22;66191;53.178;22.058;2023-06-22T14:49:10;27.20;63.60
28247;DHT22;66191;53.178;22.058;2023-06-22T14:51:44;27.20;64.40
28247;DHT22;66191;53.178;22.058;2023-06-22T14:54:17;27.10;64.80
28247;DHT22;66191;53.178;22.058;2023-06-22T14:56:50;27.10;65.00
28247;DHT22;66191;53.178;22.058;2023-06-22T14:59:24;27.00;64.40
28247;DHT22;66191;53.178;22.058;2023-06-22T15:01:55;26.90;63.90
28247;DHT22;66191;53.178;22.058;2023-06-22T15:04:26;26.90;64.50
28247;DHT22;66191;53.178;22.058;2023-06-22T15:07:02;26.80;64.40
28247;DHT22;66191;53.178;22.058;2023-06-22T15:09:34;26.70;64.30
28247;DHT22;66191;53.178;22.058;2023-06-22T15:12:07;26.70;63.90
28247;DHT22;66191;53.178;22.058;2023-06-22T15:14:42;26.70;64.20
28247;DHT22;66191;53.178;22.058;2023-06-22T15:17:13;26.70;64.50
28247;DHT22;66191;53.178;22.058;2023-06-22T15:19:45;26.70;64.70
28247;DHT22;66191;53.178;22.058;2023-06-22T15:22:17;26.60;65.40
28247;DHT22;66191;53.178;22.058;2023-06-22T15:24:49;26.60;66.00
28247;DHT22;66191;53.178;22.058;2023-06-22T15:27:26;26.60;66.40
28247;DHT22;66191;53.178;22.058;2023-06-22T15:30:02;26.50;65.90
28247;DHT22;66191;53.178;22.058;2023-06-22T15:32:34;26.50;65.90
28247;DHT22;66191;53.178;22.058;2023-06-22T15:35:06;26.50;64.90
28247;DHT22;66191;53.178;22.058;2023-06-22T15:37:40;26.40;65.10
28247;DHT22;66191;53.178;22.058;2023-06-22T15:40:12;26.40;65.10
28247;DHT22;66191;53.178;22.058;2023-06-22T15:42:44;26.40;65.10
28247;DHT22;66191;53.178;22.058;2023-06-22T15:45:23;26.50;65.50
28247;DHT22;66191;53.178;22.058;2023-06-22T15:47:54;26.50;65.60
28247;DHT22;66191;53.178;22.058;2023-06-22T15:50:28;26.50;65.40